sensor_id;sensor_type;location;lat;lon;timestamp;P1;durP1;ratioP1;P2;durP2;ratioP2
52542;SDS011;38449;52.696;6.186;2023-08-20T00:01:49;11.60;;;7.93;;
52542;SDS011;38449;52.696;6.186;2023-08-20T00:04:23;12.75;;;7.72;;
52542;SDS011;38449;52.696;6.186;2023-08-20T00:06:52;11.68;;;7.03;;
52542;SDS011;38449;52.696;6.186;2023-08-20T00:09:18;13.18;;;6.63;;
52542;SDS011;38449;52.696;6.186;2023-08-20T00:11:44;9.63;;;6.68;;
52542;SDS011;38449;52.696;6.186;2023-08-20T00:14:15;9.82;;;6.30;;
52542;SDS011;38449;52.696;6.186;2023-08-20T00:16:43;10.95;;;6.82;;
52542;SDS011;38449;52.696;6.186;2023-08-20T00:19:10;10.00;;;6.57;;
52542;SDS011;38449;52.696;6.186;2023-08-20T00:21:39;10.20;;;6.20;;
52542;SDS011;38449;52.696;6.186;2023-08-20T00:24:10;8.00;;;5.90;;
52542;SDS011;38449;52.696;6.186;2023-08-20T00:26:37;8.85;;;6.10;;
52542;SDS011;38449;52.696;6.186;2023-08-20T00:29:03;9.05;;;7.05;;
52542;SDS011;38449;52.696;6.186;2023-08-20T00:31:30;8.90;;;6.63;;
52542;SDS011;38449;52.696;6.186;2023-08-20T00:33:56;10.80;;;6.28;;
52542;SDS011;38449;52.696;6.186;2023-08-20T00:36:22;10.05;;;6.40;;
52542;SDS011;38449;52.696;6.186;2023-08-20T00:38:48;13.15;;;7.88;;
52542;SDS011;38449;52.696;6.186;2023-08-20T00:41:15;8.73;;;6.82;;
52542;SDS011;38449;52.696;6.186;2023-08-20T00:43:41;10.98;;;6.70;;
52542;SDS011;38449;52.696;6.186;2023-08-20T00:46:07;8.55;;;5.85;;
52542;SDS011;38449;52.696;6.186;2023-08-20T00:48:33;11.68;;;6.07;;
52542;SDS011;38449;52.696;6.186;2023-08-20T00:51:00;9.02;;;5.88;;
52542;SDS011;38449;52.696;6.186;2023-08-20T00:53:26;7.53;;;5.05;;
52542;SDS011;38449;52.696;6.186;2023-08-20T00:55:53;9.05;;;5.03;;
52542;SDS011;38449;52.696;6.186;2023-08-20T00:58:20;8.15;;;4.72;;
52542;SDS011;38449;52.696;6.186;2023-08-20T01:00:46;9.05;;;5.70;;
52542;SDS011;38449;52.696;6.186;2023-08-20T01:03:15;10.65;;;5.93;;
52542;SDS011;38449;52.696;6.186;2023-08-20T01:08:29;7.88;;;6.00;;
52542;SDS011;38449;52.696;6.186;2023-08-20T01:11:10;11.95;;;6.60;;
52542;SDS011;38449;52.696;6.186;2023-08-20T01:13:43;10.18;;;6.65;;
52542;SDS011;38449;52.696;6.186;2023-08-20T01:16:11;9.60;;;5.93;;
52542;SDS011;38449;52.696;6.186;2023-08-20T01:18:38;10.40;;;5.95;;
52542;SDS011;38449;52.696;6.186;2023-08-20T01:21:23;11.05;;;6.15;;
52542;SDS011;38449;52.696;6.186;2023-08-20T01:24:10;10.10;;;6.18;;
52542;SDS011;38449;52.696;6.186;2023-08-20T01:30:03;11.00;;;5.30;;
52542;SDS011;38449;52.696;6.186;2023-08-20T01:32:30;7.38;;;4.50;;
52542;SDS011;38449;52.696;6.186;2023-08-20T01:35:01;10.98;;;5.63;;
52542;SDS011;38449;52.696;6.186;2023-08-20T01:37:29;10.57;;;5.32;;
52542;SDS011;38449;52.696;6.186;2023-08-20T01:39:55;10.40;;;5.28;;
52542;SDS011;38449;52.696;6.186;2023-08-20T01:42:21;10.85;;;5.63;;
52542;SDS011;38449;52.696;6.186;2023-08-20T01:44:47;9.75;;;4.75;;
52542;SDS011;38449;52.696;6.186;2023-08-20T01:47:13;10.15;;;5.00;;
52542;SDS011;38449;52.696;6.186;2023-08-20T01:49:41;8.40;;;4.90;;
52542;SDS011;38449;52.696;6.186;2023-08-20T01:52:07;9.32;;;5.18;;
52542;SDS011;38449;52.696;6.186;2023-08-20T01:54:35;8.90;;;4.63;;
52542;SDS011;38449;52.696;6.186;2023-08-20T01:57:01;7.00;;;4.90;;
52542;SDS011;38449;52.696;6.186;2023-08-20T01:59:27;9.68;;;5.03;;
52542;SDS011;38449;52.696;6.186;2023-08-20T02:01:56;10.43;;;5.45;;
52542;SDS011;38449;52.696;6.186;2023-08-20T02:04:22;7.60;;;5.22;;
52542;SDS011;38449;52.696;6.186;2023-08-20T02:06:48;9.60;;;6.07;;
52542;SDS011;38449;52.696;6.186;2023-08-20T02:09:15;9.27;;;5.75;;
52542;SDS011;38449;52.696;6.186;2023-08-20T02:11:42;8.27;;;5.72;;
52542;SDS011;38449;52.696;6.186;2023-08-20T02:17:03;9.48;;;5.65;;
52542;SDS011;38449;52.696;6.186;2023-08-20T02:19:30;10.50;;;6.20;;
52542;SDS011;38449;52.696;6.186;2023-08-20T02:21:56;10.93;;;5.70;;
52542;SDS011;38449;52.696;6.186;2023-08-20T02:24:22;10.23;;;6.32;;
52542;SDS011;38449;52.696;6.186;2023-08-20T02:26:50;9.25;;;6.03;;
52542;SDS011;38449;52.696;6.186;2023-08-20T02:29:16;9.40;;;5.53;;
52542;SDS011;38449;52.696;6.186;2023-08-20T02:31:42;7.53;;;5.90;;
52542;SDS011;38449;52.696;6.186;2023-08-20T02:34:08;8.60;;;5.50;;
52542;SDS011;38449;52.696;6.186;2023-08-20T02:36:35;9.07;;;5.60;;
52542;SDS011;38449;52.696;6.186;2023-08-20T02:39:02;9.85;;;5.95;;
52542;SDS011;38449;52.696;6.186;2023-08-20T02:41:31;11.52;;;5.97;;
52542;SDS011;38449;52.696;6.186;2023-08-20T02:43:57;10.45;;;5.72;;
52542;SDS011;38449;52.696;6.186;2023-08-20T02:46:23;10.55;;;5.45;;
52542;SDS011;38449;52.696;6.186;2023-08-20T02:48:49;11.02;;;6.10;;
52542;SDS011;38449;52.696;6.186;2023-08-20T02:51:15;10.15;;;6.03;;
52542;SDS011;38449;52.696;6.186;2023-08-20T02:53:42;8.88;;;6.60;;
52542;SDS011;38449;52.696;6.186;2023-08-20T02:56:09;10.43;;;6.35;;
52542;SDS011;38449;52.696;6.186;2023-08-20T02:58:36;10.57;;;6.28;;
52542;SDS011;38449;52.696;6.186;2023-08-20T03:01:02;8.95;;;6.50;;
52542;SDS011;38449;52.696;6.186;2023-08-20T03:03:28;12.60;;;7.00;;
52542;SDS011;38449;52.696;6.186;2023-08-20T03:08:54;10.68;;;6.85;;
52542;SDS011;38449;52.696;6.186;2023-08-20T03:11:20;9.93;;;6.10;;
52542;SDS011;38449;52.696;6.186;2023-08-20T03:13:47;8.93;;;6.32;;
52542;SDS011;38449;52.696;6.186;2023-08-20T03:19:14;13.73;;;6.75;;
52542;SDS011;38449;52.696;6.186;2023-08-20T03:21:42;10.45;;;6.28;;
52542;SDS011;38449;52.696;6.186;2023-08-20T03:24:08;10.10;;;7.22;;
52542;SDS011;38449;52.696;6.186;2023-08-20T03:26:34;10.65;;;7.03;;
52542;SDS011;38449;52.696;6.186;2023-08-20T03:29:00;11.27;;;6.80;;
52542;SDS011;38449;52.696;6.186;2023-08-20T03:31:27;12.13;;;7.15;;
52542;SDS011;38449;52.696;6.186;2023-08-20T03:33:54;10.93;;;6.78;;
52542;SDS011;38449;52.696;6.186;2023-08-20T03:36:20;11.00;;;6.85;;
52542;SDS011;38449;52.696;6.186;2023-08-20T03:38:48;9.68;;;6.55;;
52542;SDS011;38449;52.696;6.186;2023-08-20T03:41:14;11.43;;;6.72;;
52542;SDS011;38449;52.696;6.186;2023-08-20T03:43:42;13.38;;;7.40;;
52542;SDS011;38449;52.696;6.186;2023-08-20T03:46:11;10.35;;;7.07;;
52542;SDS011;38449;52.696;6.186;2023-08-20T03:48:37;9.82;;;7.15;;
52542;SDS011;38449;52.696;6.186;2023-08-20T03:51:04;12.15;;;7.18;;
52542;SDS011;38449;52.696;6.186;2023-08-20T03:53:30;10.25;;;7.63;;
52542;SDS011;38449;52.696;6.186;2023-08-20T03:55:56;10.18;;;7.00;;
52542;SDS011;38449;52.696;6.186;2023-08-20T03:58:22;11.02;;;8.02;;
52542;SDS011;38449;52.696;6.186;2023-08-20T04:00:50;12.90;;;8.52;;
52542;SDS011;38449;52.696;6.186;2023-08-20T04:03:16;9.88;;;7.72;;
52542;SDS011;38449;52.696;6.186;2023-08-20T04:05:51;12.70;;;8.10;;
52542;SDS011;38449;52.696;6.186;2023-08-20T04:08:17;12.75;;;7.40;;
52542;SDS011;38449;52.696;6.186;2023-08-20T04:10:43;12.52;;;7.93;;
52542;SDS011;38449;52.696;6.186;2023-08-20T04:13:11;11.15;;;8.02;;
52542;SDS011;38449;52.696;6.186;2023-08-20T04:15:39;12.02;;;8.38;;
52542;SDS011;38449;52.696;6.186;2023-08-20T04:18:13;13.40;;;8.15;;
52542;SDS011;38449;52.696;6.186;2023-08-20T04:20:39;14.20;;;7.78;;
52542;SDS011;38449;52.696;6.186;2023-08-20T04:23:12;11.82;;;7.50;;
52542;SDS011;38449;52.696;6.186;2023-08-20T04:25:39;9.70;;;7.63;;
52542;SDS011;38449;52.696;6.186;2023-08-20T04:28:06;10.45;;;6.82;;
52542;SDS011;38449;52.696;6.186;2023-08-20T04:30:36;11.98;;;7.45;;
52542;SDS011;38449;52.696;6.186;2023-08-20T04:33:03;10.63;;;6.88;;
52542;SDS011;38449;52.696;6.186;2023-08-20T04:35:29;10.15;;;7.35;;
52542;SDS011;38449;52.696;6.186;2023-08-20T04:37:56;11.52;;;6.65;;
52542;SDS011;38449;52.696;6.186;2023-08-20T04:40:22;9.60;;;6.90;;
52542;SDS011;38449;52.696;6.186;2023-08-20T04:42:48;10.02;;;6.95;;
52542;SDS011;38449;52.696;6.186;2023-08-20T04:45:18;10.95;;;6.40;;
52542;SDS011;38449;52.696;6.186;2023-08-20T04:47:46;11.45;;;7.68;;
52542;SDS011;38449;52.696;6.186;2023-08-20T04:50:12;11.20;;;7.22;;
52542;SDS011;38449;52.696;6.186;2023-08-20T04:52:39;11.25;;;7.07;;
52542;SDS011;38449;52.696;6.186;2023-08-20T04:55:06;11.63;;;7.05;;
52542;SDS011;38449;52.696;6.186;2023-08-20T04:57:33;8.32;;;6.97;;
52542;SDS011;38449;52.696;6.186;2023-08-20T05:00:01;11.75;;;7.22;;
52542;SDS011;38449;52.696;6.186;2023-08-20T05:02:27;10.07;;;6.88;;
52542;SDS011;38449;52.696;6.186;2023-08-20T05:04:55;10.65;;;6.35;;
52542;SDS011;38449;52.696;6.186;2023-08-20T05:07:21;10.35;;;6.55;;
52542;SDS011;38449;52.696;6.186;2023-08-20T05:09:49;8.85;;;6.05;;
52542;SDS011;38449;52.696;6.186;2023-08-20T05:12:15;9.63;;;6.90;;
52542;SDS011;38449;52.696;6.186;2023-08-20T05:14:41;8.52;;;6.30;;
52542;SDS011;38449;52.696;6.186;2023-08-20T05:17:07;9.70;;;6.70;;
52542;SDS011;38449;52.696;6.186;2023-08-20T05:19:34;9.98;;;6.13;;
52542;SDS011;38449;52.696;6.186;2023-08-20T05:22:01;8.18;;;5.70;;
52542;SDS011;38449;52.696;6.186;2023-08-20T05:24:30;9.98;;;6.40;;
52542;SDS011;38449;52.696;6.186;2023-08-20T05:27:08;9.57;;;6.15;;
52542;SDS011;38449;52.696;6.186;2023-08-20T05:29:38;11.13;;;6.57;;
52542;SDS011;38449;52.696;6.186;2023-08-20T05:32:04;10.05;;;5.88;;
52542;SDS011;38449;52.696;6.186;2023-08-20T05:34:30;10.20;;;6.80;;
52542;SDS011;38449;52.696;6.186;2023-08-20T05:36:57;12.27;;;5.78;;
52542;SDS011;38449;52.696;6.186;2023-08-20T05:42:19;8.90;;;5.88;;
52542;SDS011;38449;52.696;6.186;2023-08-20T05:44:45;11.20;;;5.60;;
52542;SDS011;38449;52.696;6.186;2023-08-20T05:47:11;10.82;;;5.78;;
52542;SDS011;38449;52.696;6.186;2023-08-20T05:49:39;10.88;;;5.18;;
52542;SDS011;38449;52.696;6.186;2023-08-20T05:52:05;9.43;;;5.68;;
52542;SDS011;38449;52.696;6.186;2023-08-20T05:54:31;10.60;;;5.70;;
52542;SDS011;38449;52.696;6.186;2023-08-20T05:56:58;10.82;;;5.63;;
52542;SDS011;38449;52.696;6.186;2023-08-20T05:59:24;8.85;;;5.30;;
52542;SDS011;38449;52.696;6.186;2023-08-20T06:01:52;8.95;;;5.10;;
52542;SDS011;38449;52.696;6.186;2023-08-20T06:04:18;8.90;;;5.65;;
52542;SDS011;38449;52.696;6.186;2023-08-20T06:06:45;10.82;;;5.10;;
52542;SDS011;38449;52.696;6.186;2023-08-20T06:09:11;9.82;;;5.15;;
52542;SDS011;38449;52.696;6.186;2023-08-20T06:11:38;8.48;;;5.13;;
52542;SDS011;38449;52.696;6.186;2023-08-20T06:14:04;9.60;;;4.95;;
52542;SDS011;38449;52.696;6.186;2023-08-20T06:16:31;8.50;;;4.95;;
52542;SDS011;38449;52.696;6.186;2023-08-20T06:18:57;8.32;;;4.97;;
52542;SDS011;38449;52.696;6.186;2023-08-20T06:21:24;9.50;;;4.90;;
52542;SDS011;38449;52.696;6.186;2023-08-20T06:23:50;11.35;;;4.88;;
52542;SDS011;38449;52.696;6.186;2023-08-20T06:26:19;8.88;;;5.25;;
52542;SDS011;38449;52.696;6.186;2023-08-20T06:28:46;11.93;;;4.97;;
52542;SDS011;38449;52.696;6.186;2023-08-20T06:31:12;10.82;;;4.90;;
52542;SDS011;38449;52.696;6.186;2023-08-20T06:33:38;6.85;;;4.53;;
52542;SDS011;38449;52.696;6.186;2023-08-20T06:36:04;8.23;;;4.45;;
52542;SDS011;38449;52.696;6.186;2023-08-20T06:38:31;9.85;;;4.88;;
52542;SDS011;38449;52.696;6.186;2023-08-20T06:40:57;7.88;;;4.57;;
52542;SDS011;38449;52.696;6.186;2023-08-20T06:43:23;7.15;;;4.50;;
52542;SDS011;38449;52.696;6.186;2023-08-20T06:45:50;7.53;;;4.97;;
52542;SDS011;38449;52.696;6.186;2023-08-20T06:48:18;7.22;;;4.40;;
52542;SDS011;38449;52.696;6.186;2023-08-20T06:50:46;8.68;;;4.70;;
52542;SDS011;38449;52.696;6.186;2023-08-20T06:53:12;8.80;;;4.32;;
52542;SDS011;38449;52.696;6.186;2023-08-20T06:55:38;7.20;;;4.00;;
52542;SDS011;38449;52.696;6.186;2023-08-20T06:58:05;8.98;;;4.47;;
52542;SDS011;38449;52.696;6.186;2023-08-20T07:00:31;9.77;;;4.60;;
52542;SDS011;38449;52.696;6.186;2023-08-20T07:02:57;9.18;;;4.47;;
52542;SDS011;38449;52.696;6.186;2023-08-20T07:05:24;9.52;;;4.32;;
52542;SDS011;38449;52.696;6.186;2023-08-20T07:07:50;7.40;;;4.20;;
52542;SDS011;38449;52.696;6.186;2023-08-20T07:10:16;10.18;;;4.60;;
52542;SDS011;38449;52.696;6.186;2023-08-20T07:12:42;8.50;;;4.47;;
52542;SDS011;38449;52.696;6.186;2023-08-20T07:15:09;8.98;;;4.70;;
52542;SDS011;38449;52.696;6.186;2023-08-20T07:17:37;8.90;;;4.93;;
52542;SDS011;38449;52.696;6.186;2023-08-20T07:20:04;10.15;;;4.00;;
52542;SDS011;38449;52.696;6.186;2023-08-20T07:22:31;11.50;;;5.10;;
52542;SDS011;38449;52.696;6.186;2023-08-20T07:24:58;10.30;;;4.60;;
52542;SDS011;38449;52.696;6.186;2023-08-20T07:27:24;8.20;;;4.10;;
52542;SDS011;38449;52.696;6.186;2023-08-20T07:29:50;10.30;;;4.93;;
52542;SDS011;38449;52.696;6.186;2023-08-20T07:32:17;10.90;;;4.30;;
52542;SDS011;38449;52.696;6.186;2023-08-20T07:34:43;10.20;;;5.25;;
52542;SDS011;38449;52.696;6.186;2023-08-20T07:37:12;10.85;;;4.75;;
52542;SDS011;38449;52.696;6.186;2023-08-20T07:39:38;12.35;;;5.03;;
52542;SDS011;38449;52.696;6.186;2023-08-20T07:42:06;10.40;;;4.70;;
52542;SDS011;38449;52.696;6.186;2023-08-20T07:44:32;11.05;;;5.28;;
52542;SDS011;38449;52.696;6.186;2023-08-20T07:46:59;10.00;;;4.88;;
52542;SDS011;38449;52.696;6.186;2023-08-20T07:49:26;10.82;;;5.18;;
52542;SDS011;38449;52.696;6.186;2023-08-20T07:51:52;9.18;;;4.57;;
52542;SDS011;38449;52.696;6.186;2023-08-20T07:54:20;10.18;;;5.10;;
52542;SDS011;38449;52.696;6.186;2023-08-20T07:56:51;9.63;;;4.93;;
52542;SDS011;38449;52.696;6.186;2023-08-20T07:59:18;11.07;;;4.60;;
52542;SDS011;38449;52.696;6.186;2023-08-20T08:01:44;11.63;;;5.78;;
52542;SDS011;38449;52.696;6.186;2023-08-20T08:04:10;9.07;;;4.88;;
52542;SDS011;38449;52.696;6.186;2023-08-20T08:06:38;10.82;;;4.82;;
52542;SDS011;38449;52.696;6.186;2023-08-20T08:11:47;8.68;;;4.32;;
52542;SDS011;38449;52.696;6.186;2023-08-20T08:14:14;13.80;;;4.68;;
52542;SDS011;38449;52.696;6.186;2023-08-20T08:16:40;8.13;;;4.45;;
52542;SDS011;38449;52.696;6.186;2023-08-20T08:19:07;8.90;;;4.22;;
52542;SDS011;38449;52.696;6.186;2023-08-20T08:21:33;9.35;;;3.85;;
52542;SDS011;38449;52.696;6.186;2023-08-20T08:24:00;9.52;;;4.20;;
52542;SDS011;38449;52.696;6.186;2023-08-20T08:26:26;9.00;;;4.00;;
52542;SDS011;38449;52.696;6.186;2023-08-20T08:28:52;8.77;;;4.00;;
52542;SDS011;38449;52.696;6.186;2023-08-20T08:31:18;11.98;;;3.67;;
52542;SDS011;38449;52.696;6.186;2023-08-20T08:33:44;8.80;;;3.25;;
52542;SDS011;38449;52.696;6.186;2023-08-20T08:36:11;7.40;;;2.85;;
52542;SDS011;38449;52.696;6.186;2023-08-20T08:38:37;11.10;;;3.00;;
52542;SDS011;38449;52.696;6.186;2023-08-20T08:41:04;8.25;;;3.17;;
52542;SDS011;38449;52.696;6.186;2023-08-20T08:43:37;9.95;;;3.85;;
52542;SDS011;38449;52.696;6.186;2023-08-20T08:46:08;6.10;;;2.78;;
52542;SDS011;38449;52.696;6.186;2023-08-20T08:48:42;8.07;;;2.75;;
52542;SDS011;38449;52.696;6.186;2023-08-20T08:51:11;10.02;;;3.25;;
52542;SDS011;38449;52.696;6.186;2023-08-20T08:53:38;8.10;;;2.80;;
52542;SDS011;38449;52.696;6.186;2023-08-20T08:56:07;6.70;;;2.42;;
52542;SDS011;38449;52.696;6.186;2023-08-20T08:58:33;7.93;;;2.45;;
52542;SDS011;38449;52.696;6.186;2023-08-20T09:01:00;8.32;;;2.30;;
52542;SDS011;38449;52.696;6.186;2023-08-20T09:03:26;6.32;;;2.20;;
52542;SDS011;38449;52.696;6.186;2023-08-20T09:05:56;5.88;;;2.30;;
52542;SDS011;38449;52.696;6.186;2023-08-20T09:08:28;5.97;;;2.70;;
52542;SDS011;38449;52.696;6.186;2023-08-20T09:10:56;8.10;;;2.60;;
52542;SDS011;38449;52.696;6.186;2023-08-20T09:13:24;6.45;;;2.20;;
52542;SDS011;38449;52.696;6.186;2023-08-20T09:15:51;10.75;;;2.35;;
52542;SDS011;38449;52.696;6.186;2023-08-20T09:18:20;7.25;;;2.40;;
52542;SDS011;38449;52.696;6.186;2023-08-20T09:20:47;4.68;;;2.08;;
52542;SDS011;38449;52.696;6.186;2023-08-20T09:23:17;6.05;;;1.80;;
52542;SDS011;38449;52.696;6.186;2023-08-20T09:25:43;8.40;;;2.08;;
52542;SDS011;38449;52.696;6.186;2023-08-20T09:28:12;6.72;;;1.92;;
52542;SDS011;38449;52.696;6.186;2023-08-20T09:30:38;6.13;;;2.00;;
52542;SDS011;38449;52.696;6.186;2023-08-20T09:33:11;7.55;;;2.10;;
52542;SDS011;38449;52.696;6.186;2023-08-20T09:35:48;5.63;;;1.83;;
52542;SDS011;38449;52.696;6.186;2023-08-20T09:38:18;6.10;;;2.00;;
52542;SDS011;38449;52.696;6.186;2023-08-20T09:40:48;8.90;;;2.28;;
52542;SDS011;38449;52.696;6.186;2023-08-20T09:43:16;6.88;;;2.17;;
52542;SDS011;38449;52.696;6.186;2023-08-20T09:45:43;5.45;;;1.90;;
52542;SDS011;38449;52.696;6.186;2023-08-20T09:48:11;6.03;;;2.03;;
52542;SDS011;38449;52.696;6.186;2023-08-20T09:50:43;7.03;;;2.40;;
52542;SDS011;38449;52.696;6.186;2023-08-20T09:53:24;8.32;;;2.17;;
52542;SDS011;38449;52.696;6.186;2023-08-20T09:56:12;7.65;;;2.15;;
52542;SDS011;38449;52.696;6.186;2023-08-20T09:58:48;8.90;;;2.17;;
52542;SDS011;38449;52.696;6.186;2023-08-20T10:01:16;6.28;;;2.30;;
52542;SDS011;38449;52.696;6.186;2023-08-20T10:03:43;6.20;;;2.38;;
52542;SDS011;38449;52.696;6.186;2023-08-20T10:06:10;5.97;;;1.88;;
52542;SDS011;38449;52.696;6.186;2023-08-20T10:08:37;5.22;;;1.95;;
52542;SDS011;38449;52.696;6.186;2023-08-20T10:11:04;7.05;;;2.40;;
52542;SDS011;38449;52.696;6.186;2023-08-20T10:13:30;5.03;;;1.90;;
52542;SDS011;38449;52.696;6.186;2023-08-20T10:19:03;8.02;;;2.03;;
52542;SDS011;38449;52.696;6.186;2023-08-20T10:21:31;4.38;;;1.88;;
52542;SDS011;38449;52.696;6.186;2023-08-20T10:24:02;6.20;;;2.55;;
52542;SDS011;38449;52.696;6.186;2023-08-20T10:26:35;6.47;;;2.08;;
52542;SDS011;38449;52.696;6.186;2023-08-20T10:32:11;8.35;;;2.60;;
52542;SDS011;38449;52.696;6.186;2023-08-20T10:34:39;8.75;;;3.08;;
52542;SDS011;38449;52.696;6.186;2023-08-20T10:37:09;6.00;;;2.10;;
52542;SDS011;38449;52.696;6.186;2023-08-20T10:39:36;6.50;;;2.20;;
52542;SDS011;38449;52.696;6.186;2023-08-20T10:42:09;9.02;;;2.80;;
52542;SDS011;38449;52.696;6.186;2023-08-20T10:44:58;8.75;;;2.22;;
52542;SDS011;38449;52.696;6.186;2023-08-20T10:47:35;8.07;;;2.55;;
52542;SDS011;38449;52.696;6.186;2023-08-20T10:50:09;7.47;;;2.47;;
52542;SDS011;38449;52.696;6.186;2023-08-20T10:52:41;6.30;;;2.30;;
52542;SDS011;38449;52.696;6.186;2023-08-20T10:55:13;10.73;;;2.53;;
52542;SDS011;38449;52.696;6.186;2023-08-20T10:57:40;7.57;;;2.17;;
52542;SDS011;38449;52.696;6.186;2023-08-20T11:00:07;6.50;;;2.28;;
52542;SDS011;38449;52.696;6.186;2023-08-20T11:02:40;8.18;;;2.40;;
52542;SDS011;38449;52.696;6.186;2023-08-20T11:05:20;5.75;;;2.20;;
52542;SDS011;38449;52.696;6.186;2023-08-20T11:07:49;7.38;;;2.22;;
52542;SDS011;38449;52.696;6.186;2023-08-20T11:10:16;5.93;;;1.98;;
52542;SDS011;38449;52.696;6.186;2023-08-20T11:12:45;5.35;;;1.70;;
52542;SDS011;38449;52.696;6.186;2023-08-20T11:15:11;6.15;;;1.67;;
52542;SDS011;38449;52.696;6.186;2023-08-20T11:17:42;5.82;;;2.00;;
52542;SDS011;38449;52.696;6.186;2023-08-20T11:20:10;3.92;;;1.60;;
52542;SDS011;38449;52.696;6.186;2023-08-20T11:22:41;5.50;;;1.67;;
52542;SDS011;38449;52.696;6.186;2023-08-20T11:25:10;6.82;;;1.80;;
52542;SDS011;38449;52.696;6.186;2023-08-20T11:27:42;5.15;;;1.60;;
52542;SDS011;38449;52.696;6.186;2023-08-20T11:30:09;6.03;;;2.10;;
52542;SDS011;38449;52.696;6.186;2023-08-20T11:32:38;5.97;;;2.00;;
52542;SDS011;38449;52.696;6.186;2023-08-20T11:35:05;6.72;;;1.70;;
52542;SDS011;38449;52.696;6.186;2023-08-20T11:37:33;5.07;;;2.10;;
52542;SDS011;38449;52.696;6.186;2023-08-20T11:40:00;6.28;;;2.30;;
52542;SDS011;38449;52.696;6.186;2023-08-20T11:42:26;8.38;;;2.13;;
52542;SDS011;38449;52.696;6.186;2023-08-20T11:44:55;5.72;;;2.20;;
52542;SDS011;38449;52.696;6.186;2023-08-20T11:47:22;6.78;;;2.10;;
52542;SDS011;38449;52.696;6.186;2023-08-20T11:50:01;6.85;;;2.30;;
52542;SDS011;38449;52.696;6.186;2023-08-20T11:52:30;8.85;;;2.20;;
52542;SDS011;38449;52.696;6.186;2023-08-20T11:54:58;6.20;;;2.28;;
52542;SDS011;38449;52.696;6.186;2023-08-20T11:57:26;8.82;;;2.50;;
52542;SDS011;38449;52.696;6.186;2023-08-20T11:59:54;5.32;;;2.10;;
52542;SDS011;38449;52.696;6.186;2023-08-20T12:02:26;7.93;;;2.10;;
52542;SDS011;38449;52.696;6.186;2023-08-20T12:04:56;7.28;;;1.92;;
52542;SDS011;38449;52.696;6.186;2023-08-20T12:07:28;6.95;;;2.10;;
52542;SDS011;38449;52.696;6.186;2023-08-20T12:09:55;5.82;;;1.40;;
52542;SDS011;38449;52.696;6.186;2023-08-20T12:12:21;5.72;;;1.67;;
52542;SDS011;38449;52.696;6.186;2023-08-20T12:14:50;6.28;;;1.77;;
52542;SDS011;38449;52.696;6.186;2023-08-20T12:17:17;5.55;;;1.75;;
52542;SDS011;38449;52.696;6.186;2023-08-20T12:19:44;7.18;;;1.92;;
52542;SDS011;38449;52.696;6.186;2023-08-20T12:22:11;3.97;;;1.40;;
52542;SDS011;38449;52.696;6.186;2023-08-20T12:24:38;4.10;;;1.42;;
52542;SDS011;38449;52.696;6.186;2023-08-20T12:27:04;3.55;;;1.50;;
52542;SDS011;38449;52.696;6.186;2023-08-20T12:29:30;4.30;;;1.60;;
52542;SDS011;38449;52.696;6.186;2023-08-20T12:31:57;3.38;;;1.38;;
52542;SDS011;38449;52.696;6.186;2023-08-20T12:34:24;3.35;;;1.42;;
52542;SDS011;38449;52.696;6.186;2023-08-20T12:36:52;4.10;;;1.40;;
52542;SDS011;38449;52.696;6.186;2023-08-20T12:39:19;3.75;;;1.80;;
52542;SDS011;38449;52.696;6.186;2023-08-20T12:41:45;7.28;;;1.70;;
52542;SDS011;38449;52.696;6.186;2023-08-20T12:44:11;5.28;;;1.40;;
52542;SDS011;38449;52.696;6.186;2023-08-20T12:46:37;3.70;;;1.40;;
52542;SDS011;38449;52.696;6.186;2023-08-20T12:49:04;5.80;;;1.40;;
52542;SDS011;38449;52.696;6.186;2023-08-20T12:51:30;4.60;;;1.40;;
52542;SDS011;38449;52.696;6.186;2023-08-20T12:53:56;4.00;;;1.25;;
52542;SDS011;38449;52.696;6.186;2023-08-20T12:56:23;4.43;;;1.42;;
52542;SDS011;38449;52.696;6.186;2023-08-20T12:58:49;4.40;;;1.55;;
52542;SDS011;38449;52.696;6.186;2023-08-20T13:01:15;5.10;;;1.52;;
52542;SDS011;38449;52.696;6.186;2023-08-20T13:03:42;6.45;;;1.58;;
52542;SDS011;38449;52.696;6.186;2023-08-20T13:06:13;4.43;;;1.35;;
52542;SDS011;38449;52.696;6.186;2023-08-20T13:08:39;5.75;;;1.85;;
52542;SDS011;38449;52.696;6.186;2023-08-20T13:11:07;4.88;;;1.70;;
52542;SDS011;38449;52.696;6.186;2023-08-20T13:13:39;3.60;;;1.20;;
52542;SDS011;38449;52.696;6.186;2023-08-20T13:16:06;5.15;;;1.20;;
52542;SDS011;38449;52.696;6.186;2023-08-20T13:18:34;5.15;;;1.40;;
52542;SDS011;38449;52.696;6.186;2023-08-20T13:21:01;5.25;;;1.70;;
52542;SDS011;38449;52.696;6.186;2023-08-20T13:23:29;5.03;;;1.48;;
52542;SDS011;38449;52.696;6.186;2023-08-20T13:25:56;3.80;;;1.25;;
52542;SDS011;38449;52.696;6.186;2023-08-20T13:28:23;5.57;;;1.45;;
52542;SDS011;38449;52.696;6.186;2023-08-20T13:30:49;3.95;;;1.23;;
52542;SDS011;38449;52.696;6.186;2023-08-20T13:33:16;4.25;;;1.30;;
52542;SDS011;38449;52.696;6.186;2023-08-20T13:35:42;4.25;;;1.52;;
52542;SDS011;38449;52.696;6.186;2023-08-20T13:38:09;4.80;;;1.42;;
52542;SDS011;38449;52.696;6.186;2023-08-20T13:40:36;4.00;;;1.10;;
52542;SDS011;38449;52.696;6.186;2023-08-20T13:43:02;4.07;;;1.40;;
52542;SDS011;38449;52.696;6.186;2023-08-20T13:45:28;2.88;;;1.00;;
52542;SDS011;38449;52.696;6.186;2023-08-20T13:47:55;4.07;;;1.45;;
52542;SDS011;38449;52.696;6.186;2023-08-20T13:50:21;2.35;;;1.10;;
52542;SDS011;38449;52.696;6.186;2023-08-20T13:52:49;3.45;;;1.42;;
52542;SDS011;38449;52.696;6.186;2023-08-20T13:55:15;4.40;;;1.20;;
52542;SDS011;38449;52.696;6.186;2023-08-20T13:57:44;3.60;;;1.30;;
52542;SDS011;38449;52.696;6.186;2023-08-20T14:00:10;4.25;;;1.38;;
52542;SDS011;38449;52.696;6.186;2023-08-20T14:02:38;4.45;;;1.40;;
52542;SDS011;38449;52.696;6.186;2023-08-20T14:05:05;4.50;;;1.00;;
52542;SDS011;38449;52.696;6.186;2023-08-20T14:07:33;4.15;;;1.30;;
52542;SDS011;38449;52.696;6.186;2023-08-20T14:10:00;2.85;;;0.93;;
52542;SDS011;38449;52.696;6.186;2023-08-20T14:12:27;3.88;;;1.20;;
52542;SDS011;38449;52.696;6.186;2023-08-20T14:14:53;2.58;;;1.00;;
52542;SDS011;38449;52.696;6.186;2023-08-20T14:17:19;3.05;;;1.17;;
52542;SDS011;38449;52.696;6.186;2023-08-20T14:19:46;3.42;;;1.23;;
52542;SDS011;38449;52.696;6.186;2023-08-20T14:22:12;2.88;;;1.17;;
52542;SDS011;38449;52.696;6.186;2023-08-20T14:24:38;3.50;;;1.10;;
52542;SDS011;38449;52.696;6.186;2023-08-20T14:27:07;4.10;;;1.65;;
52542;SDS011;38449;52.696;6.186;2023-08-20T14:29:33;5.20;;;1.80;;
52542;SDS011;38449;52.696;6.186;2023-08-20T14:32:00;3.25;;;1.30;;
52542;SDS011;38449;52.696;6.186;2023-08-20T14:34:26;3.92;;;1.50;;
52542;SDS011;38449;52.696;6.186;2023-08-20T14:36:52;5.90;;;1.70;;
52542;SDS011;38449;52.696;6.186;2023-08-20T14:39:19;4.85;;;1.60;;
52542;SDS011;38449;52.696;6.186;2023-08-20T14:41:45;4.05;;;1.35;;
52542;SDS011;38449;52.696;6.186;2023-08-20T14:44:12;6.80;;;1.88;;
52542;SDS011;38449;52.696;6.186;2023-08-20T14:46:38;3.83;;;1.52;;
52542;SDS011;38449;52.696;6.186;2023-08-20T14:49:17;4.22;;;1.50;;
52542;SDS011;38449;52.696;6.186;2023-08-20T14:51:44;5.35;;;1.25;;
52542;SDS011;38449;52.696;6.186;2023-08-20T14:54:10;7.47;;;1.70;;
52542;SDS011;38449;52.696;6.186;2023-08-20T14:56:37;4.85;;;1.40;;
52542;SDS011;38449;52.696;6.186;2023-08-20T14:59:03;4.88;;;1.50;;
52542;SDS011;38449;52.696;6.186;2023-08-20T15:01:30;5.75;;;1.60;;
52542;SDS011;38449;52.696;6.186;2023-08-20T15:03:56;5.65;;;1.40;;
52542;SDS011;38449;52.696;6.186;2023-08-20T15:06:22;4.60;;;1.30;;
52542;SDS011;38449;52.696;6.186;2023-08-20T15:08:50;4.47;;;1.60;;
52542;SDS011;38449;52.696;6.186;2023-08-20T15:11:18;5.82;;;2.03;;
52542;SDS011;38449;52.696;6.186;2023-08-20T15:13:45;6.63;;;2.63;;